sensor_id;sensor_type;location;lat;lon;timestamp;temperature;humidity
1524;DHT22;755;53.658;10.118;2023-03-01T00:07:53;-1.60;99.90
1524;DHT22;755;53.658;10.118;2023-03-01T00:17:55;-1.50;99.90
1524;DHT22;755;53.658;10.118;2023-03-01T00:27:59;-1.50;99.90
1524;DHT22;755;53.658;10.118;2023-03-01T00:38:01;-1.60;99.90
1524;DHT22;755;53.658;10.118;2023-03-01T00:48:06;-1.70;99.90
1524;DHT22;755;53.658;10.118;2023-03-01T00:58:08;-1.70;99.90
1524;DHT22;755;53.658;10.118;2023-03-01T01:08:11;-1.70;99.90
1524;DHT22;755;53.658;10.118;2023-03-01T01:18:13;-1.70;99.90
1524;DHT22;755;53.658;10.118;2023-03-01T01:28:17;-1.70;99.90
1524;DHT22;755;53.658;10.118;2023-03-01T01:38:20;-1.90;99.90
1524;DHT22;755;53.658;10.118;2023-03-01T01:48:28;-1.80;99.90
1524;DHT22;755;53.658;10.118;2023-03-01T01:58:41;-1.90;99.90
1524;DHT22;755;53.658;10.118;2023-03-01T02:09:07;-2.00;99.90
1524;DHT22;755;53.658;10.118;2023-03-01T02:19:21;-2.10;99.90
1524;DHT22;755;53.658;10.118;2023-03-01T02:29:27;-2.10;99.90
1524;DHT22;755;53.658;10.118;2023-03-01T02:39:32;-2.00;99.90
1524;DHT22;755;53.658;10.118;2023-03-01T02:49:37;-2.10;99.90
1524;DHT22;755;53.658;10.118;2023-03-01T02:59:40;-2.00;99.90
1524;DHT22;755;53.658;10.118;2023-03-01T03:09:44;-2.00;99.90
1524;DHT22;755;53.658;10.118;2023-03-01T03:19:46;-2.10;99.90
1524;DHT22;755;53.658;10.118;2023-03-01T03:29:53;-2.20;99.90
1524;DHT22;755;53.658;10.118;2023-03-01T03:40:04;-2.00;99.90
1524;DHT22;755;53.658;10.118;2023-03-01T03:50:18;-1.90;99.90
1524;DHT22;755;53.658;10.118;2023-03-01T04:00:21;-1.80;99.90
1524;DHT22;755;53.658;10.118;2023-03-01T04:10:26;-1.70;99.90
1524;DHT22;755;53.658;10.118;2023-03-01T04:20:31;-1.60;99.90
1524;DHT22;755;53.658;10.118;2023-03-01T04:30:38;-1.40;99.90
1524;DHT22;755;53.658;10.118;2023-03-01T04:40:46;-1.40;99.90
1524;DHT22;755;53.658;10.118;2023-03-01T04:50:56;-1.20;99.90
1524;DHT22;755;53.658;10.118;2023-03-01T05:01:09;-1.00;99.90
1524;DHT22;755;53.658;10.118;2023-03-01T05:11:25;-0.90;99.90
1524;DHT22;755;53.658;10.118;2023-03-01T05:21:34;-0.80;99.90
1524;DHT22;755;53.658;10.118;2023-03-01T05:32:02;-0.80;99.90
1524;DHT22;755;53.658;10.118;2023-03-01T05:42:12;-0.50;99.90
1524;DHT22;755;53.658;10.118;2023-03-01T05:52:18;-0.60;99.90
1524;DHT22;755;53.658;10.118;2023-03-01T06:02:25;-0.50;99.90
1524;DHT22;755;53.658;10.118;2023-03-01T06:12:36;-0.60;99.90
1524;DHT22;755;53.658;10.118;2023-03-01T06:22:47;-0.60;99.90
1524;DHT22;755;53.658;10.118;2023-03-01T06:32:53;-0.50;99.90
1524;DHT22;755;53.658;10.118;2023-03-01T06:43:10;-0.30;99.90
1524;DHT22;755;53.658;10.118;2023-03-01T06:53:18;-0.30;99.90
1524;DHT22;755;53.658;10.118;2023-03-01T07:03:26;0.00;99.90
1524;DHT22;755;53.658;10.118;2023-03-01T07:13:35;0.10;99.90
1524;DHT22;755;53.658;10.118;2023-03-01T07:23:42;0.40;99.90
1524;DHT22;755;53.658;10.118;2023-03-01T07:33:52;0.60;19.60
1524;DHT22;755;53.658;10.118;2023-03-01T07:43:58;1.00;1.00
1524;DHT22;755;53.658;10.118;2023-03-01T07:54:05;1.20;99.90
1524;DHT22;755;53.658;10.118;2023-03-01T08:04:09;1.40;99.90
1524;DHT22;755;53.658;10.118;2023-03-01T08:14:15;1.80;47.10
1524;DHT22;755;53.658;10.118;2023-03-01T08:24:20;2.10;99.90
1524;DHT22;755;53.658;10.118;2023-03-01T08:34:25;3.20;1.00
1524;DHT22;755;53.658;10.118;2023-03-01T08:44:27;3.00;1.00
1524;DHT22;755;53.658;10.118;2023-03-01T08:54:30;2.90;99.90
1524;DHT22;755;53.658;10.118;2023-03-01T09:04:33;3.10;97.50
1524;DHT22;755;53.658;10.118;2023-03-01T09:14:36;3.10;1.00
1524;DHT22;755;53.658;10.118;2023-03-01T09:24:39;3.40;1.00
1524;DHT22;755;53.658;10.118;2023-03-01T09:34:43;3.80;99.90
1524;DHT22;755;53.658;10.118;2023-03-01T09:45:06;4.00;99.90
1524;DHT22;755;53.658;10.118;2023-03-01T09:55:15;4.50;99.90
1524;DHT22;755;53.658;10.118;2023-03-01T10:05:34;4.50;99.90
1524;DHT22;755;53.658;10.118;2023-03-01T10:15:44;4.70;48.70
1524;DHT22;755;53.658;10.118;2023-03-01T10:26:05;4.70;99.90
1524;DHT22;755;53.658;10.118;2023-03-01T10:36:10;4.80;99.90
1524;DHT22;755;53.658;10.118;2023-03-01T10:46:23;4.90;1.00
1524;DHT22;755;53.658;10.118;2023-03-01T10:56:27;5.10;1.00
1524;DHT22;755;53.658;10.118;2023-03-01T11:06:32;5.20;1.00
1524;DHT22;755;53.658;10.118;2023-03-01T11:16:37;5.30;1.00
1524;DHT22;755;53.658;10.118;2023-03-01T11:26:42;5.50;1.00
1524;DHT22;755;53.658;10.118;2023-03-01T11:36:51;5.70;1.00
1524;DHT22;755;53.658;10.118;2023-03-01T11:47:10;5.60;25.60
1524;DHT22;755;53.658;10.118;2023-03-01T11:57:22;5.80;99.90
1524;DHT22;755;53.658;10.118;2023-03-01T12:07:33;6.10;1.00
1524;DHT22;755;53.658;10.118;2023-03-01T12:18:02;6.30;1.00
1524;DHT22;755;53.658;10.118;2023-03-01T12:28:45;6.50;1.00
1524;DHT22;755;53.658;10.118;2023-03-01T12:49:09;6.80;1.00
1524;DHT22;755;53.658;10.118;2023-03-01T12:59:18;6.60;1.00
1524;DHT22;755;53.658;10.118;2023-03-01T13:09:29;6.60;99.90
1524;DHT22;755;53.658;10.118;2023-03-01T13:19:32;6.50;1.00
1524;DHT22;755;53.658;10.118;2023-03-01T13:29:45;6.50;99.90
1524;DHT22;755;53.658;10.118;2023-03-01T13:39:48;6.50;1.00
1524;DHT22;755;53.658;10.118;2023-03-01T13:49:55;6.60;1.00
1524;DHT22;755;53.658;10.118;2023-03-01T13:59:58;6.50;47.60
1524;DHT22;755;53.658;10.118;2023-03-01T14:10:02;6.60;1.00
1524;DHT22;755;53.658;10.118;2023-03-01T14:20:12;6.70;1.00
1524;DHT22;755;53.658;10.118;2023-03-01T14:30:50;6.70;1.00
1524;DHT22;755;53.658;10.118;2023-03-01T14:40:55;6.60;99.90
1524;DHT22;755;53.658;10.118;2023-03-01T14:50:59;6.60;99.90
1524;DHT22;755;53.658;10.118;2023-03-01T15:01:04;6.60;99.90
1524;DHT22;755;53.658;10.118;2023-03-01T15:11:22;6.60;99.90
1524;DHT22;755;53.658;10.118;2023-03-01T15:21:26;6.60;99.90
1524;DHT22;755;53.658;10.118;2023-03-01T15:31:32;6.50;99.90
1524;DHT22;755;53.658;10.118;2023-03-01T15:41:46;6.50;1.00
1524;DHT22;755;53.658;10.118;2023-03-01T15:51:50;6.40;1.00
1524;DHT22;755;53.658;10.118;2023-03-01T16:01:53;6.30;99.90
1524;DHT22;755;53.658;10.118;2023-03-01T16:11:56;6.20;1.00
1524;DHT22;755;53.658;10.118;2023-03-01T16:22:01;6.00;99.90
1524;DHT22;755;53.658;10.118;2023-03-01T16:32:07;5.80;1.00
1524;DHT22;755;53.658;10.118;2023-03-01T16:42:09;5.50;38.70
1524;DHT22;755;53.658;10.118;2023-03-01T16:52:12;5.30;1.00
1524;DHT22;755;53.658;10.118;2023-03-01T17:02:14;4.90;99.90
1524;DHT22;755;53.658;10.118;2023-03-01T17:12:21;4.20;99.90
1524;DHT22;755;53.658;10.118;2023-03-01T17:22:23;3.70;99.90
1524;DHT22;755;53.658;10.118;2023-03-01T17:32:26;3.30;99.90
1524;DHT22;755;53.658;10.118;2023-03-01T17:42:29;2.70;99.90
1524;DHT22;755;53.658;10.118;2023-03-01T17:52:32;2.30;99.90
1524;DHT22;755;53.658;10.118;2023-03-01T18:02:34;1.60;99.90
1524;DHT22;755;53.658;10.118;2023-03-01T18:12:38;1.10;99.90
1524;DHT22;755;53.658;10.118;2023-03-01T18:22:40;1.30;99.90
1524;DHT22;755;53.658;10.118;2023-03-01T18:32:43;1.50;99.90
1524;DHT22;755;53.658;10.118;2023-03-01T18:42:45;1.60;99.90
1524;DHT22;755;53.658;10.118;2023-03-01T18:52:49;1.70;99.90
1524;DHT22;755;53.658;10.118;2023-03-01T19:02:51;1.80;99.90
1524;DHT22;755;53.658;10.118;2023-03-01T19:12:54;1.90;99.90
1524;DHT22;755;53.658;10.118;2023-03-01T19:22:56;1.90;99.90
1524;DHT22;755;53.658;10.118;2023-03-01T19:32:59;1.90;99.90
1524;DHT22;755;53.658;10.118;2023-03-01T19:43:01;2.00;99.90
1524;DHT22;755;53.658;10.118;2023-03-01T19:53:04;1.90;99.90
1524;DHT22;755;53.658;10.118;2023-03-01T20:03:06;1.90;99.90
1524;DHT22;755;53.658;10.118;2023-03-01T20:13:10;1.90;99.90
1524;DHT22;755;53.658;10.118;2023-03-01T20:23:11;1.70;99.90
1524;DHT22;755;53.658;10.118;2023-03-01T20:33:15;1.80;99.90
1524;DHT22;755;53.658;10.118;2023-03-01T20:43:17;1.80;99.90
1524;DHT22;755;53.658;10.118;2023-03-01T20:53:20;1.80;99.90
1524;DHT22;755;53.658;10.118;2023-03-01T21:03:22;1.70;99.90
1524;DHT22;755;53.658;10.118;2023-03-01T21:13:26;1.70;99.90
1524;DHT22;755;53.658;10.118;2023-03-01T21:23:30;1.70;99.90
1524;DHT22;755;53.658;10.118;2023-03-01T21:33:34;1.60;99.90
1524;DHT22;755;53.658;10.118;2023-03-01T21:43:37;1.50;99.90
1524;DHT22;755;53.658;10.118;2023-03-01T21:53:41;1.40;99.90
1524;DHT22;755;53.658;10.118;2023-03-01T22:03:44;1.40;99.90
1524;DHT22;755;53.658;10.118;2023-03-01T22:13:50;1.20;99.90
1524;DHT22;755;53.658;10.118;2023-03-01T22:23:53;1.10;99.90
1524;DHT22;755;53.658;10.118;2023-03-01T22:33:58;1.00;99.90
1524;DHT22;755;53.658;10.118;2023-03-01T22:44:00;0.90;99.90
1524;DHT22;755;53.658;10.118;2023-03-01T22:54:04;0.90;99.90
1524;DHT22;755;53.658;10.118;2023-03-01T23:04:06;0.70;99.90
1524;DHT22;755;53.658;10.118;2023-03-01T23:14:10;0.50;99.90
1524;DHT22;755;53.658;10.118;2023-03-01T23:24:13;0.50;99.90
1524;DHT22;755;53.658;10.118;2023-03-01T23:34:17;0.50;99.90
1524;DHT22;755;53.658;10.118;2023-03-01T23:44:21;0.30;99.90
1524;DHT22;755;53.658;10.118;2023-03-01T23:54:24;0.30;99.90
